Carnival Victory — 3FFL8 — position and weather

sailwx.info

Track history (hours):
 
Tides and Currents Weather Stations Pressure Air Temp Water Temp Dewpoint Dewpoint Depression Visibility Wind Speed Wind Dir Waves Ship Positions

Carnival Victory

Operator: Carnival Cruise Lines

Last reported at 2017-May-25 02:30 UTC. Time now 2017-May-25 02:53 UTC.
Position N 20°35' W 086°59'.

Type: Ship. MMSI: 355263000.

Date/timePositionNaut miles runAvg speedWind from/ knotsBaromVisibWave heightAir tempDewpointWater temp
2017-May-25 02:30N 20°35' W 086°59'611.8
2017-May-25 02:00N 20°29' W 086°59'0 0.3
2017-May-25 01:29N 20°29' W 086°59'0 0.0
2017-May-25 00:59N 20°29' W 086°59'0 0.0
2017-May-25 00:29N 20°29' W 086°59'0 0.0
2017-May-24 23:59N 20°29' W 086°59'0 0.0
2017-May-24 23:29N 20°29' W 086°59'0 0.0
2017-May-24 22:59N 20°29' W 086°59'0 0.0
2017-May-24 22:29N 20°29' W 086°59'0 0.0
2017-May-24 21:59N 20°29' W 086°59'0 0.0
2017-May-24 21:29N 20°29' W 086°59'0 0.0
2017-May-24 20:59N 20°29' W 086°59'0 0.0
2017-May-24 20:29N 20°29' W 086°59'0 0.0
2017-May-24 19:59N 20°29' W 086°59'0 0.0
2017-May-24 19:23N 20°29' W 086°59'0 0.0
2017-May-24 18:59N 20°29' W 086°59'0 0.0
2017-May-24 18:29N 20°29' W 086°59'0 0.0
2017-May-24 17:59N 20°29' W 086°59'0 0.0
2017-May-24 17:29N 20°29' W 086°59'0 0.0
2017-May-24 16:59N 20°29' W 086°59'0 0.0
2017-May-24 16:29N 20°29' W 086°59'0 0.0
2017-May-24 16:00N 20°29' W 086°59'3 5.5
2017-May-24 15:30N 20°31' W 086°60'713.3
2017-May-24 15:00N 20°37' W 086°56'6315.7
2017-May-24 11:00N 21°12' W 086°00'30712.8 360 / 521008.4 5.4 27.022.828.0
2017-May-23 11:06N 24°34' W 081°49'0 1.5
2017-May-23 10:55N 24°33' W 081°49'14 8.3
2017-May-23 09:17N 24°21' W 081°43'3 9.4
2017-May-23 09:00N 24°20' W 081°40'510.3
2017-May-23 08:30N 24°19' W 081°35'710.9
2017-May-23 07:53N 24°20' W 081°27'4611.5
2017-May-23 03:51N 24°35' W 080°39'1414.0
2017-May-23 02:52N 24°43' W 080°27'714.1
2017-May-23 02:21N 24°47' W 080°20'714.0
2017-May-23 01:51N 24°51' W 080°14'1713.6
2017-May-23 00:35N 25°05' W 080°03'113.5
2017-May-23 00:30N 25°06' W 080°02'713.6
2017-May-22 23:59N 25°12' W 079°59'713.5
2017-May-22 23:30N 25°18' W 079°56'713.6
2017-May-22 23:00N 25°25' W 079°55'2111.7
2017-May-22 23:00N 25°24' W 079°54'816.4 340 / 241015.510.8 26.020.227.0
2017-May-22 22:30N 25°32' W 079°55'713.6
2017-May-22 22:01N 25°39' W 079°57'713.9
2017-May-22 21:30N 25°44' W 080°02'5 9.1
2017-May-22 21:00N 25°46' W 080°06'4 7.2
2017-May-22 20:30N 25°47' W 080°10'0 0.0
2017-May-22 19:58N 25°47' W 080°10'0 0.0
2017-May-22 19:25N 25°47' W 080°10'0 0.0
2017-May-22 18:58N 25°47' W 080°10'0 0.0
2017-May-22 18:25N 25°47' W 080°10'0 0.0
2017-May-22 17:55N 25°47' W 080°10'0 0.0
2017-May-22 17:22N 25°47' W 080°10'0 0.0
2017-May-22 16:58N 25°47' W 080°10'0 0.0
2017-May-22 16:25N 25°47' W 080°10'0 0.0
2017-May-22 15:55N 25°47' W 080°10'0 0.0
2017-May-22 15:28N 25°47' W 080°10'0 0.0
2017-May-22 14:58N 25°47' W 080°10'0 0.0
2017-May-22 13:58N 25°47' W 080°10'0 0.0
2017-May-22 13:28N 25°47' W 080°10'0 0.0
2017-May-22 12:58N 25°47' W 080°10'0 0.0
2017-May-22 12:28N 25°47' W 080°10'0 0.0
2017-May-22 11:58N 25°47' W 080°10'0 0.0
2017-May-22 11:28N 25°47' W 080°10'0 0.0
2017-May-22 10:58N 25°47' W 080°10'0 0.9
2017-May-22 10:30N 25°47' W 080°11'1 2.8
2017-May-22 10:00N 25°46' W 080°09'510.1
2017-May-22 09:30N 25°46' W 080°04'4 7.2
2017-May-22 09:00N 25°48' W 079°60'4 7.5
2017-May-22 08:30N 25°50' W 079°56'4 7.9
2017-May-22 08:00N 25°52' W 079°53'4 7.7
2017-May-22 07:30N 25°54' W 079°49'4 7.5
2017-May-22 07:00N 25°56' W 079°46'4 7.2
2017-May-22 06:30N 25°58' W 079°42'4 7.4
2017-May-22 06:00N 26°00' W 079°39'4 7.4
2017-May-22 05:30N 26°03' W 079°36'4 7.1
2017-May-22 05:00N 26°05' W 079°32'4 7.2
2017-May-22 04:30N 26°07' W 079°29'4 8.0
2017-May-22 04:00N 26°08' W 079°25'4 7.7
2017-May-22 03:30N 26°10' W 079°21'4 7.6
2017-May-22 03:00N 26°12' W 079°18'4 7.6
2017-May-22 02:30N 26°14' W 079°14'4 7.9
2017-May-22 02:00N 26°16' W 079°11'4 8.1
2017-May-22 01:30N 26°18' W 079°06'4 8.4
2017-May-22 01:00N 26°17' W 079°02'4 8.5
2017-May-22 00:30N 26°16' W 078°57'4 8.1
2017-May-22 00:00N 26°14' W 078°53'5 8.1
2017-May-21 23:24N 26°13' W 078°48'4 9.1
2017-May-21 23:00N 26°12' W 078°44'5 9.1
2017-May-21 22:28N 26°11' W 078°39'13 9.8
2017-May-21 21:09N 26°06' W 078°26'2 9.1
2017-May-21 20:52N 26°05' W 078°23'3 8.9
2017-May-21 20:30N 26°04' W 078°20'610.2
2017-May-21 19:57N 26°03' W 078°13'1310.3
2017-May-21 18:40N 25°58' W 077°60'7 9.8
2017-May-21 17:57N 25°56' W 077°52'73 1.8
2017-May-20 01:46N 26°17' W 079°10'515.7
2017-May-20 01:29N 26°15' W 079°14'816.0
2017-May-20 01:00N 26°10' W 079°21'816.1
2017-May-20 00:30N 26°06' W 079°29'816.2
2017-May-20 00:00N 26°02' W 079°36'816.2
2017-May-19 23:30N 25°57' W 079°44'816.1
2017-May-19 23:00N 25°53' W 079°51'815.9
2017-May-19 22:30N 25°49' W 079°59'612.1
2017-May-19 22:00N 25°46' W 080°05'5 9.5
2017-May-19 21:30N 25°47' W 080°10'0 0.3
2017-May-19 21:00N 25°47' W 080°10'0 0.0
2017-May-19 20:27N 25°47' W 080°10'0 0.0
2017-May-19 20:00N 25°47' W 080°10'0 0.0
2017-May-19 19:30N 25°47' W 080°10'0 0.0
2017-May-19 19:00N 25°47' W 080°10'0 0.0
2017-May-19 18:24N 25°47' W 080°10'0 0.0
2017-May-19 17:57N 25°47' W 080°10'0 0.0
2017-May-19 17:24N 25°47' W 080°10'0 0.0
2017-May-19 16:54N 25°47' W 080°10'0 0.0
2017-May-19 16:24N 25°47' W 080°10'0 0.0
2017-May-19 16:00N 25°47' W 080°10'0 0.0
2017-May-19 15:27N 25°47' W 080°10'0 0.0
2017-May-19 15:00N 25°47' W 080°10'0 0.0
2017-May-19 14:00N 25°47' W 080°10'0 0.0
2017-May-19 13:24N 25°47' W 080°10'0 0.0
2017-May-19 12:33N 25°47' W 080°10'0 0.0
2017-May-19 12:30N 25°47' W 080°10'0 0.0
2017-May-19 11:48N 25°47' W 080°10'0 0.0
2017-May-19 11:30N 25°47' W 080°10'0 0.0
2017-May-19 10:57N 25°47' W 080°10'1 2.4
2017-May-19 10:30N 25°46' W 080°09'510.1
2017-May-19 10:00N 25°46' W 080°03'3 6.3
2017-May-19 09:30N 25°46' W 080°00'5 9.6
2017-May-19 09:00N 25°43' W 079°56'612.8
2017-May-19 08:31N 25°37' W 079°55'1019.0
2017-May-19 08:00N 25°27' W 079°54'33716.1
2017-May-18 11:00N 22°18' W 085°00'13718.4 190 / 201013.410.8 27.021.327.0
2017-May-18 03:33N 20°45' W 086°48'118.8
2017-May-18 03:28N 20°44' W 086°49'918.8
2017-May-18 03:01N 20°38' W 086°55'816.1
2017-May-18 02:30N 20°31' W 086°59'2 4.4
2017-May-18 02:00N 20°29' W 086°59'0 0.0
2017-May-18 01:30N 20°29' W 086°59'0 0.0
2017-May-18 01:00N 20°29' W 086°59'0 0.0
2017-May-18 00:30N 20°29' W 086°59'0 0.0
2017-May-18 00:00N 20°29' W 086°59'0 0.0
2017-May-17 23:30N 20°29' W 086°59'0 0.0
2017-May-17 23:00N 20°29' W 086°59'0 0.0
2017-May-17 22:30N 20°29' W 086°59'0 0.0
2017-May-17 22:00N 20°29' W 086°59'0 0.0
2017-May-17 21:27N 20°29' W 086°59'0 0.0
2017-May-17 21:00N 20°29' W 086°59'0 0.0
2017-May-17 20:30N 20°29' W 086°59'0 0.0
2017-May-17 20:00N 20°29' W 086°59'0 0.0
2017-May-17 19:27N 20°29' W 086°59'0 0.0
2017-May-17 19:00N 20°29' W 086°59'0 0.0
2017-May-17 18:24N 20°29' W 086°59'0 0.0
2017-May-17 18:00N 20°29' W 086°59'0 0.0
2017-May-17 17:30N 20°29' W 086°59'0 0.0
2017-May-17 17:00N 20°29' W 086°59'0 0.0
2017-May-17 16:30N 20°29' W 086°59'0 0.0
2017-May-17 16:00N 20°29' W 086°59'0 0.0
2017-May-17 15:31N 20°29' W 086°59'2 3.8
2017-May-17 15:01N 20°30' W 086°60'9 9.1
2017-May-17 14:00N 20°39' W 086°56'4113.8
2017-May-17 11:00N 21°00' W 086°18'23619.7 350 / 261010.8 5.4 27.021.328.0
2017-May-16 23:00N 23°36' W 083°06'202 8.8 010 / 271013.4 5.4 27.019.828.0
2017-May-16 00:00N 25°13' W 079°51'713.9
2017-May-15 23:30N 25°19' W 079°49'714.4
2017-May-15 23:00N 25°25' W 079°53'713.3
2017-May-15 22:30N 25°32' W 079°55'713.6
2017-May-15 22:00N 25°39' W 079°55'713.3
2017-May-15 21:30N 25°44' W 079°60'510.7
2017-May-15 21:01N 25°46' W 080°05'4 8.8
2017-May-15 20:30N 25°47' W 080°10'0 0.1
2017-May-15 20:00N 25°47' W 080°10'0 0.0
2017-May-15 19:30N 25°47' W 080°10'0 0.0
2017-May-15 19:00N 25°47' W 080°10'0 0.0
2017-May-15 18:30N 25°47' W 080°10'0 0.0
2017-May-15 18:00N 25°47' W 080°10'0 0.0
2017-May-15 17:27N 25°47' W 080°10'0 0.0
2017-May-15 16:57N 25°47' W 080°10'0 0.0
2017-May-15 16:30N 25°47' W 080°10'0 0.0
2017-May-15 16:00N 25°47' W 080°10'0 0.0
2017-May-15 15:30N 25°47' W 080°10'0 0.0
2017-May-15 15:00N 25°47' W 080°10'0 0.0
2017-May-15 14:00N 25°47' W 080°10'0 0.0
2017-May-15 13:30N 25°47' W 080°10'0 0.0
2017-May-15 13:00N 25°47' W 080°10'0 0.0
2017-May-15 12:30N 25°47' W 080°10'0 0.0
2017-May-15 12:00N 25°47' W 080°10'0 0.0
2017-May-15 11:30N 25°47' W 080°10'0 0.0
2017-May-15 11:00N 25°47' W 080°10'1 1.6
2017-May-15 10:30N 25°47' W 080°11'2 4.7
2017-May-15 10:00N 25°46' W 080°09'4 8.7
2017-May-15 09:30N 25°46' W 080°04'4 7.5
2017-May-15 09:00N 25°48' W 079°60'4 7.4
2017-May-15 08:30N 25°50' W 079°57'4 8.5
2017-May-15 08:00N 25°52' W 079°53'4 8.2
2017-May-15 07:30N 25°55' W 079°49'4 8.2
2017-May-15 07:00N 25°57' W 079°45'4 8.5
2017-May-15 06:30N 25°59' W 079°41'5 9.1
2017-May-15 06:00N 26°02' W 079°37'4 8.6
2017-May-15 05:30N 26°04' W 079°33'4 8.4
2017-May-15 05:00N 26°06' W 079°29'4 8.8
2017-May-15 04:30N 26°09' W 079°24'5 9.2
2017-May-15 04:00N 26°11' W 079°20'5 9.5
2017-May-15 03:30N 26°14' W 079°16'5 9.5
2017-May-15 03:00N 26°16' W 079°11'  
Track history (hours):
 
Tides and Currents Weather Stations Pressure Air Temp Water Temp Dewpoint Dewpoint Depression Visibility Wind Speed Wind Dir Waves Ship Positions

Carnival Victory

Operator: Carnival Cruise Lines

Last reported at 2017-May-25 02:30 UTC. Time now 2017-May-25 02:53 UTC.
Position N 20°35' W 086°59'.

Type: Ship. MMSI: 355263000.

Date/timePositionNaut miles runAvg speedWind from/ knotsBaromVisibWave heightAir tempDewpointWater temp
2017-May-25 02:30N 20°35' W 086°59'611.8
2017-May-25 02:00N 20°29' W 086°59'0 0.3
2017-May-25 01:29N 20°29' W 086°59'0 0.0
2017-May-25 00:59N 20°29' W 086°59'0 0.0
2017-May-25 00:29N 20°29' W 086°59'0 0.0
2017-May-24 23:59N 20°29' W 086°59'0 0.0
2017-May-24 23:29N 20°29' W 086°59'0 0.0
2017-May-24 22:59N 20°29' W 086°59'0 0.0
2017-May-24 22:29N 20°29' W 086°59'0 0.0
2017-May-24 21:59N 20°29' W 086°59'0 0.0
2017-May-24 21:29N 20°29' W 086°59'0 0.0
2017-May-24 20:59N 20°29' W 086°59'0 0.0
2017-May-24 20:29N 20°29' W 086°59'0 0.0
2017-May-24 19:59N 20°29' W 086°59'0 0.0
2017-May-24 19:23N 20°29' W 086°59'0 0.0
2017-May-24 18:59N 20°29' W 086°59'0 0.0
2017-May-24 18:29N 20°29' W 086°59'0 0.0
2017-May-24 17:59N 20°29' W 086°59'0 0.0
2017-May-24 17:29N 20°29' W 086°59'0 0.0
2017-May-24 16:59N 20°29' W 086°59'0 0.0
2017-May-24 16:29N 20°29' W 086°59'0 0.0
2017-May-24 16:00N 20°29' W 086°59'3 5.5
2017-May-24 15:30N 20°31' W 086°60'713.3
2017-May-24 15:00N 20°37' W 086°56'6315.7
2017-May-24 11:00N 21°12' W 086°00'30712.8 360 / 521008.4 5.4 27.022.828.0
2017-May-23 11:06N 24°34' W 081°49'0 1.5
2017-May-23 10:55N 24°33' W 081°49'14 8.3
2017-May-23 09:17N 24°21' W 081°43'3 9.4
2017-May-23 09:00N 24°20' W 081°40'510.3
2017-May-23 08:30N 24°19' W 081°35'710.9
2017-May-23 07:53N 24°20' W 081°27'4611.5
2017-May-23 03:51N 24°35' W 080°39'1414.0
2017-May-23 02:52N 24°43' W 080°27'714.1
2017-May-23 02:21N 24°47' W 080°20'714.0
2017-May-23 01:51N 24°51' W 080°14'1713.6
2017-May-23 00:35N 25°05' W 080°03'113.5
2017-May-23 00:30N 25°06' W 080°02'713.6
2017-May-22 23:59N 25°12' W 079°59'713.5
2017-May-22 23:30N 25°18' W 079°56'713.6
2017-May-22 23:00N 25°25' W 079°55'2111.7
2017-May-22 23:00N 25°24' W 079°54'816.4 340 / 241015.510.8 26.020.227.0
2017-May-22 22:30N 25°32' W 079°55'713.6
2017-May-22 22:01N 25°39' W 079°57'713.9
2017-May-22 21:30N 25°44' W 080°02'5 9.1
2017-May-22 21:00N 25°46' W 080°06'4 7.2
2017-May-22 20:30N 25°47' W 080°10'0 0.0
2017-May-22 19:58N 25°47' W 080°10'0 0.0
2017-May-22 19:25N 25°47' W 080°10'0 0.0
2017-May-22 18:58N 25°47' W 080°10'0 0.0
2017-May-22 18:25N 25°47' W 080°10'0 0.0
2017-May-22 17:55N 25°47' W 080°10'0 0.0
2017-May-22 17:22N 25°47' W 080°10'0 0.0
2017-May-22 16:58N 25°47' W 080°10'0 0.0
2017-May-22 16:25N 25°47' W 080°10'0 0.0
2017-May-22 15:55N 25°47' W 080°10'0 0.0
2017-May-22 15:28N 25°47' W 080°10'0 0.0
2017-May-22 14:58N 25°47' W 080°10'0 0.0
2017-May-22 13:58N 25°47' W 080°10'0 0.0
2017-May-22 13:28N 25°47' W 080°10'0 0.0
2017-May-22 12:58N 25°47' W 080°10'0 0.0
2017-May-22 12:28N 25°47' W 080°10'0 0.0
2017-May-22 11:58N 25°47' W 080°10'0 0.0
2017-May-22 11:28N 25°47' W 080°10'0 0.0
2017-May-22 10:58N 25°47' W 080°10'0 0.9
2017-May-22 10:30N 25°47' W 080°11'1 2.8
2017-May-22 10:00N 25°46' W 080°09'510.1
2017-May-22 09:30N 25°46' W 080°04'4 7.2
2017-May-22 09:00N 25°48' W 079°60'4 7.5
2017-May-22 08:30N 25°50' W 079°56'4 7.9
2017-May-22 08:00N 25°52' W 079°53'4 7.7
2017-May-22 07:30N 25°54' W 079°49'4 7.5
2017-May-22 07:00N 25°56' W 079°46'4 7.2
2017-May-22 06:30N 25°58' W 079°42'4 7.4
2017-May-22 06:00N 26°00' W 079°39'4 7.4
2017-May-22 05:30N 26°03' W 079°36'4 7.1
2017-May-22 05:00N 26°05' W 079°32'4 7.2
2017-May-22 04:30N 26°07' W 079°29'4 8.0
2017-May-22 04:00N 26°08' W 079°25'4 7.7
2017-May-22 03:30N 26°10' W 079°21'4 7.6
2017-May-22 03:00N 26°12' W 079°18'4 7.6
2017-May-22 02:30N 26°14' W 079°14'4 7.9
2017-May-22 02:00N 26°16' W 079°11'4 8.1
2017-May-22 01:30N 26°18' W 079°06'4 8.4
2017-May-22 01:00N 26°17' W 079°02'4 8.5
2017-May-22 00:30N 26°16' W 078°57'4 8.1
2017-May-22 00:00N 26°14' W 078°53'5 8.1
2017-May-21 23:24N 26°13' W 078°48'4 9.1
2017-May-21 23:00N 26°12' W 078°44'5 9.1
2017-May-21 22:28N 26°11' W 078°39'13 9.8
2017-May-21 21:09N 26°06' W 078°26'2 9.1
2017-May-21 20:52N 26°05' W 078°23'3 8.9
2017-May-21 20:30N 26°04' W 078°20'610.2
2017-May-21 19:57N 26°03' W 078°13'1310.3
2017-May-21 18:40N 25°58' W 077°60'7 9.8
2017-May-21 17:57N 25°56' W 077°52'73 1.8
2017-May-20 01:46N 26°17' W 079°10'515.7
2017-May-20 01:29N 26°15' W 079°14'816.0
2017-May-20 01:00N 26°10' W 079°21'816.1
2017-May-20 00:30N 26°06' W 079°29'816.2
2017-May-20 00:00N 26°02' W 079°36'816.2
2017-May-19 23:30N 25°57' W 079°44'816.1
2017-May-19 23:00N 25°53' W 079°51'815.9
2017-May-19 22:30N 25°49' W 079°59'612.1
2017-May-19 22:00N 25°46' W 080°05'5 9.5
2017-May-19 21:30N 25°47' W 080°10'0 0.3
2017-May-19 21:00N 25°47' W 080°10'0 0.0
2017-May-19 20:27N 25°47' W 080°10'0 0.0
2017-May-19 20:00N 25°47' W 080°10'0 0.0
2017-May-19 19:30N 25°47' W 080°10'0 0.0
2017-May-19 19:00N 25°47' W 080°10'0 0.0
2017-May-19 18:24N 25°47' W 080°10'0 0.0
2017-May-19 17:57N 25°47' W 080°10'0 0.0
2017-May-19 17:24N 25°47' W 080°10'0 0.0
2017-May-19 16:54N 25°47' W 080°10'0 0.0
2017-May-19 16:24N 25°47' W 080°10'0 0.0
2017-May-19 16:00N 25°47' W 080°10'0 0.0
2017-May-19 15:27N 25°47' W 080°10'0 0.0
2017-May-19 15:00N 25°47' W 080°10'0 0.0
2017-May-19 14:00N 25°47' W 080°10'0 0.0
2017-May-19 13:24N 25°47' W 080°10'0 0.0
2017-May-19 12:33N 25°47' W 080°10'0 0.0
2017-May-19 12:30N 25°47' W 080°10'0 0.0
2017-May-19 11:48N 25°47' W 080°10'0 0.0
2017-May-19 11:30N 25°47' W 080°10'0 0.0
2017-May-19 10:57N 25°47' W 080°10'1 2.4
2017-May-19 10:30N 25°46' W 080°09'510.1
2017-May-19 10:00N 25°46' W 080°03'3 6.3
2017-May-19 09:30N 25°46' W 080°00'5 9.6
2017-May-19 09:00N 25°43' W 079°56'612.8
2017-May-19 08:31N 25°37' W 079°55'1019.0
2017-May-19 08:00N 25°27' W 079°54'33716.1
2017-May-18 11:00N 22°18' W 085°00'13718.4 190 / 201013.410.8 27.021.327.0
2017-May-18 03:33N 20°45' W 086°48'118.8
2017-May-18 03:28N 20°44' W 086°49'918.8
2017-May-18 03:01N 20°38' W 086°55'816.1
2017-May-18 02:30N 20°31' W 086°59'2 4.4
2017-May-18 02:00N 20°29' W 086°59'0 0.0
2017-May-18 01:30N 20°29' W 086°59'0 0.0
2017-May-18 01:00N 20°29' W 086°59'0 0.0
2017-May-18 00:30N 20°29' W 086°59'0 0.0
2017-May-18 00:00N 20°29' W 086°59'0 0.0
2017-May-17 23:30N 20°29' W 086°59'0 0.0
2017-May-17 23:00N 20°29' W 086°59'0 0.0
2017-May-17 22:30N 20°29' W 086°59'0 0.0
2017-May-17 22:00N 20°29' W 086°59'0 0.0
2017-May-17 21:27N 20°29' W 086°59'0 0.0
2017-May-17 21:00N 20°29' W 086°59'0 0.0
2017-May-17 20:30N 20°29' W 086°59'0 0.0
2017-May-17 20:00N 20°29' W 086°59'0 0.0
2017-May-17 19:27N 20°29' W 086°59'0 0.0
2017-May-17 19:00N 20°29' W 086°59'0 0.0
2017-May-17 18:24N 20°29' W 086°59'0 0.0
2017-May-17 18:00N 20°29' W 086°59'0 0.0
2017-May-17 17:30N 20°29' W 086°59'0 0.0
2017-May-17 17:00N 20°29' W 086°59'0 0.0
2017-May-17 16:30N 20°29' W 086°59'0 0.0
2017-May-17 16:00N 20°29' W 086°59'0 0.0
2017-May-17 15:31N 20°29' W 086°59'2 3.8
2017-May-17 15:01N 20°30' W 086°60'9 9.1
2017-May-17 14:00N 20°39' W 086°56'4113.8
2017-May-17 11:00N 21°00' W 086°18'23619.7 350 / 261010.8 5.4 27.021.328.0
2017-May-16 23:00N 23°36' W 083°06'202 8.8 010 / 271013.4 5.4 27.019.828.0
2017-May-16 00:00N 25°13' W 079°51'713.9
2017-May-15 23:30N 25°19' W 079°49'714.4
2017-May-15 23:00N 25°25' W 079°53'713.3
2017-May-15 22:30N 25°32' W 079°55'713.6
2017-May-15 22:00N 25°39' W 079°55'713.3
2017-May-15 21:30N 25°44' W 079°60'510.7
2017-May-15 21:01N 25°46' W 080°05'4 8.8
2017-May-15 20:30N 25°47' W 080°10'0 0.1
2017-May-15 20:00N 25°47' W 080°10'0 0.0
2017-May-15 19:30N 25°47' W 080°10'0 0.0
2017-May-15 19:00N 25°47' W 080°10'0 0.0
2017-May-15 18:30N 25°47' W 080°10'0 0.0
2017-May-15 18:00N 25°47' W 080°10'0 0.0
2017-May-15 17:27N 25°47' W 080°10'0 0.0
2017-May-15 16:57N 25°47' W 080°10'0 0.0
2017-May-15 16:30N 25°47' W 080°10'0 0.0
2017-May-15 16:00N 25°47' W 080°10'0 0.0
2017-May-15 15:30N 25°47' W 080°10'0 0.0
2017-May-15 15:00N 25°47' W 080°10'0 0.0
2017-May-15 14:00N 25°47' W 080°10'0 0.0
2017-May-15 13:30N 25°47' W 080°10'0 0.0
2017-May-15 13:00N 25°47' W 080°10'0 0.0
2017-May-15 12:30N 25°47' W 080°10'0 0.0
2017-May-15 12:00N 25°47' W 080°10'0 0.0
2017-May-15 11:30N 25°47' W 080°10'0 0.0
2017-May-15 11:00N 25°47' W 080°10'1 1.6
2017-May-15 10:30N 25°47' W 080°11'2 4.7
2017-May-15 10:00N 25°46' W 080°09'4 8.7
2017-May-15 09:30N 25°46' W 080°04'4 7.5
2017-May-15 09:00N 25°48' W 079°60'4 7.4
2017-May-15 08:30N 25°50' W 079°57'4 8.5
2017-May-15 08:00N 25°52' W 079°53'4 8.2
2017-May-15 07:30N 25°55' W 079°49'4 8.2
2017-May-15 07:00N 25°57' W 079°45'4 8.5
2017-May-15 06:30N 25°59' W 079°41'5 9.1
2017-May-15 06:00N 26°02' W 079°37'4 8.6
2017-May-15 05:30N 26°04' W 079°33'4 8.4
2017-May-15 05:00N 26°06' W 079°29'4 8.8
2017-May-15 04:30N 26°09' W 079°24'5 9.2
2017-May-15 04:00N 26°11' W 079°20'5 9.5
2017-May-15 03:30N 26°14' W 079°16'5 9.5
2017-May-15 03:00N 26°16' W 079°11'  

Dump ship's entire track history